Time;durP1;ratioP1;P1;durP2;ratioP2;P2;SDS_P1;SDS_P2;PMS_P1;PMS_P2;Temp;Humidity;BMP_temperature;BMP_pressure;BME280_temperature;BME280_humidity;BME280_pressure;Samples;Min_cycle;Max_cycle;Signal;HPM_P1;HPM_P2
2021/05/07 00:01:26;;;;;;;9.05;8.05;;;;;;;;;;5008256;28;20383;-85
2021/05/07 00:03:52;;;;;;;9.82;7.50;;;;;;;;;;5008330;28;20390;-83
2021/05/07 00:06:18;;;;;;;8.73;7.30;;;;;;;;;;5008699;28;20856;-86
2021/05/07 00:08:44;;;;;;;7.93;7.13;;;;;;;;;;5008286;28;20399;-86
2021/05/07 00:11:11;;;;;;;8.23;7.10;;;;;;;;;;5009741;28;20486;-84
2021/05/07 00:13:37;;;;;;;10.02;7.75;;;;;;;;;;5008388;28;20379;-85
2021/05/07 00:16:04;;;;;;;8.90;7.97;;;;;;;;;;5008087;28;20438;-86
2021/05/07 00:18:30;;;;;;;8.00;7.20;;;;;;;;;;5008380;28;20470;-84
2021/05/07 00:20:56;;;;;;;9.23;7.63;;;;;;;;;;5008307;28;20887;-84
2021/05/07 00:23:22;;;;;;;8.55;7.68;;;;;;;;;;5009231;28;20379;-87
2021/05/07 00:25:51;;;;;;;9.07;8.13;;;;;;;;;;5008001;28;20403;-86
2021/05/07 00:28:17;;;;;;;9.27;7.80;;;;;;;;;;5007983;28;20750;-87
2021/05/07 00:30:43;;;;;;;8.70;7.57;;;;;;;;;;5007381;28;20950;-85
2021/05/07 00:33:09;;;;;;;9.43;7.57;;;;;;;;;;5007955;28;20414;-86
2021/05/07 00:35:36;;;;;;;9.35;8.00;;;;;;;;;;5009205;28;20737;-84
2021/05/07 00:38:02;;;;;;;8.82;7.38;;;;;;;;;;5007758;28;20375;-87
2021/05/07 00:40:28;;;;;;;8.77;7.20;;;;;;;;;;5007735;28;20390;-86
2021/05/07 00:42:54;;;;;;;9.13;7.57;;;;;;;;;;5009532;28;20470;-84
2021/05/07 00:45:20;;;;;;;9.02;7.55;;;;;;;;;;5009045;28;20428;-85
2021/05/07 00:47:48;;;;;;;8.45;7.18;;;;;;;;;;5007831;28;20585;-86
2021/05/07 00:50:15;;;;;;;8.77;7.50;;;;;;;;;;5009008;28;20496;-85
2021/05/07 00:52:42;;;;;;;8.35;7.40;;;;;;;;;;5007796;28;20860;-85
2021/05/07 00:55:08;;;;;;;8.10;7.30;;;;;;;;;;5007903;28;20395;-85
2021/05/07 00:57:35;;;;;;;7.97;7.17;;;;;;;;;;5007660;28;20465;-87
2021/05/07 01:00:01;;;;;;;8.20;7.32;;;;;;;;;;5009252;28;20371;-86
2021/05/07 01:02:27;;;;;;;9.70;7.68;;;;;;;;;;5009419;28;20367;-84
2021/05/07 01:04:53;;;;;;;8.95;8.05;;;;;;;;;;5009151;28;20390;-85
2021/05/07 01:07:19;;;;;;;9.55;7.80;;;;;;;;;;5007346;28;20422;-87
2021/05/07 01:09:45;;;;;;;8.90;8.00;;;;;;;;;;5008883;28;20375;-86
2021/05/07 01:12:11;;;;;;;10.00;8.27;;;;;;;;;;5008773;28;20406;-85
2021/05/07 01:14:37;;;;;;;9.50;8.07;;;;;;;;;;5008801;28;20454;-87
2021/05/07 01:17:04;;;;;;;8.60;7.70;;;;;;;;;;5009846;28;20502;-87
2021/05/07 01:19:30;;;;;;;8.50;7.53;;;;;;;;;;5012713;28;20397;-87
2021/05/07 01:21:56;;;;;;;10.47;8.10;;;;;;;;;;5011368;28;20405;-85
2021/05/07 01:24:25;;;;;;;9.00;7.63;;;;;;;;;;5012451;28;20371;-85
2021/05/07 01:26:51;;;;;;;9.68;8.30;;;;;;;;;;5011272;28;20383;-84
2021/05/07 01:29:17;;;;;;;9.10;7.97;;;;;;;;;;5011216;28;20433;-86
2021/05/07 01:31:44;;;;;;;8.67;7.87;;;;;;;;;;5012291;28;20407;-87
2021/05/07 01:34:10;;;;;;;9.80;8.63;;;;;;;;;;5011340;28;20494;-85
2021/05/07 01:36:36;;;;;;;9.37;8.47;;;;;;;;;;5011130;28;20477;-86
2021/05/07 01:39:02;;;;;;;9.50;7.72;;;;;;;;;;5012372;28;20398;-87
2021/05/07 01:41:28;;;;;;;10.75;8.30;;;;;;;;;;5011022;28;20474;-85
2021/05/07 01:43:56;;;;;;;9.13;8.23;;;;;;;;;;5012085;28;20498;-87
2021/05/07 01:46:22;;;;;;;9.20;8.30;;;;;;;;;;5011033;28;20383;-87
2021/05/07 01:48:48;;;;;;;8.90;8.00;;;;;;;;;;5010872;28;20386;-85
2021/05/07 01:51:14;;;;;;;10.23;8.90;;;;;;;;;;5010636;28;20768;-86
2021/05/07 01:53:40;;;;;;;9.48;8.48;;;;;;;;;;5010909;28;20426;-87
2021/05/07 01:56:06;;;;;;;9.63;8.63;;;;;;;;;;5010672;28;20383;-86
2021/05/07 01:58:32;;;;;;;9.45;8.48;;;;;;;;;;5011997;28;20445;-88
2021/05/07 02:00:58;;;;;;;8.83;7.93;;;;;;;;;;5010579;28;20373;-85
2021/05/07 02:03:24;;;;;;;8.50;7.70;;;;;;;;;;5010759;28;20410;-86
2021/05/07 02:05:50;;;;;;;10.07;7.65;;;;;;;;;;5010583;28;20371;-85
2021/05/07 02:08:17;;;;;;;8.30;7.38;;;;;;;;;;5011472;28;20391;-84
2021/05/07 02:10:43;;;;;;;7.93;7.18;;;;;;;;;;5010180;28;20431;-84
2021/05/07 02:13:10;;;;;;;7.72;7.03;;;;;;;;;;5011503;28;20912;-85
2021/05/07 02:15:37;;;;;;;7.65;6.88;;;;;;;;;;5011459;28;20389;-86
2021/05/07 02:18:03;;;;;;;9.60;7.25;;;;;;;;;;5010487;28;20403;-87
2021/05/07 02:20:30;;;;;;;8.35;7.47;;;;;;;;;;5010471;28;20372;-87
2021/05/07 02:22:56;;;;;;;7.65;6.95;;;;;;;;;;5010240;28;20422;-86
2021/05/07 02:25:23;;;;;;;9.05;8.05;;;;;;;;;;5010627;28;20375;-86
2021/05/07 02:27:50;;;;;;;9.90;8.90;;;;;;;;;;5011076;28;20509;-86
2021/05/07 02:30:18;;;;;;;9.10;8.20;;;;;;;;;;5010319;28;20379;-86
2021/05/07 02:32:44;;;;;;;9.43;8.43;;;;;;;;;;5011705;28;20391;-86
2021/05/07 02:35:10;;;;;;;9.75;8.60;;;;;;;;;;5011420;28;20380;-87
2021/05/07 02:37:36;;;;;;;10.32;8.80;;;;;;;;;;5009784;28;20379;-87
2021/05/07 02:40:02;;;;;;;9.73;8.27;;;;;;;;;;5011670;28;20375;-86
2021/05/07 02:42:28;;;;;;;11.70;9.05;;;;;;;;;;5010014;28;20394;-85
2021/05/07 02:44:55;;;;;;;10.60;8.37;;;;;;;;;;5011165;28;20432;-88
2021/05/07 02:47:21;;;;;;;9.35;8.05;;;;;;;;;;5010002;28;20379;-83
2021/05/07 02:49:47;;;;;;;10.00;8.20;;;;;;;;;;5009776;28;20450;-86
2021/05/07 02:52:13;;;;;;;9.13;8.23;;;;;;;;;;5009804;28;20411;-85
2021/05/07 02:54:39;;;;;;;9.93;8.55;;;;;;;;;;5009875;28;20387;-86
2021/05/07 02:57:05;;;;;;;9.43;8.48;;;;;;;;;;5010880;28;20781;-87
2021/05/07 02:59:31;;;;;;;10.13;9.03;;;;;;;;;;5010929;28;20959;-85
2021/05/07 03:01:57;;;;;;;9.60;8.15;;;;;;;;;;5009287;28;20857;-87
2021/05/07 03:04:24;;;;;;;9.50;8.50;;;;;;;;;;5009552;28;20376;-85
2021/05/07 03:06:50;;;;;;;9.75;8.75;;;;;;;;;;5009088;28;20386;-87
2021/05/07 03:09:16;;;;;;;8.90;8.00;;;;;;;;;;5008966;28;20418;-85
2021/05/07 03:11:42;;;;;;;9.38;8.38;;;;;;;;;;5008880;28;20746;-85
2021/05/07 03:14:08;;;;;;;9.70;8.50;;;;;;;;;;5010332;28;20386;-87
2021/05/07 03:16:35;;;;;;;9.68;8.68;;;;;;;;;;5010381;28;20367;-83
2021/05/07 03:19:01;;;;;;;9.32;8.32;;;;;;;;;;5009111;28;20903;-85
2021/05/07 03:21:27;;;;;;;8.50;7.70;;;;;;;;;;5010321;28;20995;-85
2021/05/07 03:23:53;;;;;;;9.77;8.45;;;;;;;;;;5009140;28;20403;-84
2021/05/07 03:26:19;;;;;;;9.95;8.80;;;;;;;;;;5010598;28;20375;-84
2021/05/07 03:28:45;;;;;;;11.18;9.43;;;;;;;;;;5009130;28;20414;-84
2021/05/07 03:31:12;;;;;;;12.70;10.50;;;;;;;;;;5009174;28;20932;-86
2021/05/07 03:33:39;;;;;;;11.77;9.68;;;;;;;;;;5010467;28;20922;-88
2021/05/07 03:36:05;;;;;;;11.83;9.83;;;;;;;;;;5008972;28;20379;-84
2021/05/07 03:38:32;;;;;;;11.87;9.60;;;;;;;;;;5009133;28;20398;-88
2021/05/07 03:40:58;;;;;;;11.05;9.23;;;;;;;;;;5007935;28;20379;-85
2021/05/07 03:43:24;;;;;;;9.00;8.10;;;;;;;;;;5010165;28;20437;-87
2021/05/07 03:45:50;;;;;;;9.60;8.63;;;;;;;;;;5008739;28;20459;-84
2021/05/07 03:48:20;;;;;;;8.68;7.78;;;;;;;;;;5008806;28;20372;-84
2021/05/07 03:50:49;;;;;;;11.65;8.80;;;;;;;;;;5008645;28;21035;-84
2021/05/07 03:53:16;;;;;;;8.40;7.60;;;;;;;;;;5008755;28;20397;-84
2021/05/07 03:55:42;;;;;;;7.95;6.90;;;;;;;;;;5009952;28;20452;-87
2021/05/07 03:58:09;;;;;;;7.43;6.55;;;;;;;;;;5008686;28;20437;-85
2021/05/07 04:00:35;;;;;;;7.30;6.43;;;;;;;;;;5010494;28;20367;-88
2021/05/07 04:03:01;;;;;;;7.93;6.45;;;;;;;;;;5009801;28;20382;-86
2021/05/07 04:05:27;;;;;;;7.90;5.53;;;;;;;;;;5008802;28;20399;-87
2021/05/07 04:10:44;;;;;;;7.63;5.30;;;;;;;;;;5009541;28;20414;-86
2021/05/07 04:16:15;;;;;;;5.75;4.82;;;;;;;;;;4987479;28;20397;-84
2021/05/07 04:18:41;;;;;;;6.53;4.72;;;;;;;;;;4987653;28;20540;-87
2021/05/07 04:21:07;;;;;;;11.88;5.20;;;;;;;;;;4997704;28;20387;-88
2021/05/07 04:23:33;;;;;;;11.57;5.47;;;;;;;;;;5008367;28;20461;-85
2021/05/07 04:26:00;;;;;;;8.00;4.78;;;;;;;;;;5007914;28;20877;-85
2021/05/07 04:28:26;;;;;;;7.68;4.35;;;;;;;;;;5009265;28;20437;-86
2021/05/07 04:30:52;;;;;;;6.80;4.10;;;;;;;;;;5009562;28;20411;-87
2021/05/07 04:33:18;;;;;;;4.93;3.55;;;;;;;;;;5009514;28;20462;-88
2021/05/07 04:35:44;;;;;;;5.93;4.45;;;;;;;;;;5007995;28;20469;-86
2021/05/07 04:38:10;;;;;;;6.00;4.15;;;;;;;;;;5016321;28;20417;-86
2021/05/07 04:40:37;;;;;;;4.97;3.78;;;;;;;;;;5029021;28;21179;-89
2021/05/07 04:43:03;;;;;;;5.38;3.60;;;;;;;;;;5028509;28;20871;-87
2021/05/07 04:45:30;;;;;;;4.95;3.65;;;;;;;;;;5028324;28;20403;-85
2021/05/07 04:47:56;;;;;;;6.68;4.15;;;;;;;;;;5028495;28;20958;-84
2021/05/07 04:50:22;;;;;;;7.55;3.95;;;;;;;;;;5028075;28;20464;-86
2021/05/07 04:52:48;;;;;;;5.93;3.63;;;;;;;;;;5032499;28;20783;-85
2021/05/07 04:55:14;;;;;;;7.73;4.03;;;;;;;;;;5032709;28;20833;-87
2021/05/07 04:57:40;;;;;;;7.13;3.40;;;;;;;;;;5033278;28;20480;-85
2021/05/07 05:00:06;;;;;;;4.65;3.20;;;;;;;;;;5032918;28;20387;-88
2021/05/07 05:02:34;;;;;;;5.97;3.92;;;;;;;;;;5032009;28;20385;-86
2021/05/07 05:05:00;;;;;;;7.85;3.83;;;;;;;;;;5033284;28;20460;-81
2021/05/07 05:07:26;;;;;;;6.82;3.90;;;;;;;;;;5031329;28;20485;-88
2021/05/07 05:09:53;;;;;;;7.55;3.63;;;;;;;;;;5031140;28;20384;-88
2021/05/07 05:12:19;;;;;;;7.85;4.10;;;;;;;;;;5032905;28;20492;-84
2021/05/07 05:14:46;;;;;;;5.97;4.15;;;;;;;;;;5031762;28;20477;-89
2021/05/07 05:17:12;;;;;;;7.87;4.33;;;;;;;;;;5032889;28;20439;-84
2021/05/07 05:19:38;;;;;;;5.93;4.13;;;;;;;;;;5028685;28;20387;-86
2021/05/07 05:22:04;;;;;;;5.45;3.90;;;;;;;;;;5012800;28;20418;-92
2021/05/07 05:24:30;;;;;;;5.68;4.00;;;;;;;;;;5012913;28;20431;-84
2021/05/07 05:26:56;;;;;;;8.52;4.57;;;;;;;;;;5021154;28;20384;-85
2021/05/07 05:29:22;;;;;;;6.88;3.90;;;;;;;;;;5032902;28;20847;-86
2021/05/07 05:31:48;;;;;;;8.60;4.70;;;;;;;;;;5032506;28;20397;-84
2021/05/07 05:34:14;;;;;;;8.57;5.10;;;;;;;;;;5031403;28;20404;-86
2021/05/07 05:36:46;;;;;;;7.65;4.50;;;;;;;;;;5030881;28;20389;-86
2021/05/07 05:39:13;;;;;;;7.30;4.43;;;;;;;;;;5031552;28;20524;-87
2021/05/07 05:41:40;;;;;;;7.43;4.63;;;;;;;;;;5031456;28;20451;-83
2021/05/07 05:44:06;;;;;;;7.68;4.20;;;;;;;;;;5032225;28;20859;-84
2021/05/07 05:46:32;;;;;;;6.25;4.25;;;;;;;;;;5032395;28;20382;-86
2021/05/07 05:48:58;;;;;;;6.80;4.18;;;;;;;;;;5032439;28;20381;-84
2021/05/07 05:51:24;;;;;;;7.82;4.75;;;;;;;;;;5031978;28;20409;-82
2021/05/07 05:53:50;;;;;;;7.15;4.45;;;;;;;;;;5030905;28;20382;-86
2021/05/07 05:56:16;;;;;;;9.40;4.90;;;;;;;;;;5031725;28;20468;-83
2021/05/07 05:58:43;;;;;;;7.70;4.60;;;;;;;;;;5030811;28;20992;-85
2021/05/07 06:01:10;;;;;;;7.25;4.57;;;;;;;;;;5032075;28;20980;-85
2021/05/07 06:03:36;;;;;;;9.07;4.47;;;;;;;;;;5029241;28;20397;-83
2021/05/07 06:06:02;;;;;;;9.32;4.78;;;;;;;;;;5032021;28;20475;-84
2021/05/07 06:08:28;;;;;;;10.30;4.70;;;;;;;;;;5030205;28;20484;-84
2021/05/07 06:10:55;;;;;;;6.80;4.50;;;;;;;;;;5029178;28;20756;-86
2021/05/07 06:13:21;;;;;;;7.53;4.85;;;;;;;;;;5029637;28;20458;-87
2021/05/07 06:15:47;;;;;;;8.13;4.97;;;;;;;;;;5029864;28;20763;-92
2021/05/07 06:18:13;;;;;;;9.68;5.75;;;;;;;;;;5030195;28;20470;-87
2021/05/07 06:20:39;;;;;;;9.05;5.25;;;;;;;;;;5031361;28;20389;-89
2021/05/07 06:23:05;;;;;;;9.98;5.10;;;;;;;;;;5030472;28;20365;-86
2021/05/07 06:25:31;;;;;;;10.55;5.35;;;;;;;;;;5019136;28;20458;-85
2021/05/07 06:27:57;;;;;;;10.65;4.97;;;;;;;;;;5010311;28;20383;-89
2021/05/07 06:30:23;;;;;;;10.43;5.93;;;;;;;;;;5010713;28;20810;-86
2021/05/07 06:32:49;;;;;;;10.93;5.32;;;;;;;;;;5010387;28;20443;-88
2021/05/07 06:35:15;;;;;;;10.97;5.73;;;;;;;;;;5011318;28;20424;-89
2021/05/07 06:37:41;;;;;;;12.38;5.97;;;;;;;;;;5021825;28;21178;-85
2021/05/07 06:40:08;;;;;;;11.00;5.93;;;;;;;;;;5030300;28;20858;-89
2021/05/07 06:42:36;;;;;;;10.80;5.53;;;;;;;;;;5029824;28;20432;-86
2021/05/07 06:45:04;;;;;;;8.68;5.18;;;;;;;;;;5029748;28;20386;-87
2021/05/07 06:47:30;;;;;;;10.10;5.07;;;;;;;;;;5029402;28;20397;-83
2021/05/07 06:49:56;;;;;;;10.95;5.57;;;;;;;;;;5030855;28;20373;-88
2021/05/07 06:52:23;;;;;;;13.83;5.80;;;;;;;;;;5029887;28;20775;-85
2021/05/07 06:54:49;;;;;;;10.88;6.00;;;;;;;;;;5013672;28;20459;-87
2021/05/07 06:57:15;;;;;;;16.98;6.68;;;;;;;;;;5011315;28;20383;-86
2021/05/07 06:59:43;;;;;;;12.63;6.03;;;;;;;;;;5010151;28;20375;-84
2021/05/07 07:02:09;;;;;;;10.80;5.53;;;;;;;;;;5014791;28;20401;-85
2021/05/07 07:04:35;;;;;;;15.65;5.68;;;;;;;;;;5029514;28;20411;-89
2021/05/07 07:07:01;;;;;;;10.20;6.47;;;;;;;;;;5024498;28;20484;-86
2021/05/07 07:09:27;;;;;;;12.02;6.13;;;;;;;;;;5028933;28;20421;-87
2021/05/07 07:11:53;;;;;;;9.88;5.75;;;;;;;;;;5030144;28;20405;-86
2021/05/07 07:14:19;;;;;;;13.03;6.40;;;;;;;;;;5030778;28;20479;-86
2021/05/07 07:16:46;;;;;;;10.90;6.35;;;;;;;;;;5023287;28;20496;-86
2021/05/07 07:19:12;;;;;;;12.57;6.50;;;;;;;;;;5029839;28;20372;-84
2021/05/07 07:21:39;;;;;;;11.30;6.07;;;;;;;;;;5030246;28;20420;-83
2021/05/07 07:24:05;;;;;;;14.52;6.88;;;;;;;;;;5027249;28;20533;-89
2021/05/07 07:26:31;;;;;;;12.40;6.80;;;;;;;;;;5029767;28;20396;-86
2021/05/07 07:28:57;;;;;;;11.25;6.78;;;;;;;;;;5028855;28;20484;-84
2021/05/07 07:31:23;;;;;;;12.40;7.30;;;;;;;;;;5029439;28;20420;-83
2021/05/07 07:33:49;;;;;;;13.27;7.22;;;;;;;;;;5028522;28;20432;-89
2021/05/07 07:36:15;;;;;;;11.73;7.35;;;;;;;;;;5029117;28;20385;-88
2021/05/07 07:38:41;;;;;;;14.07;7.53;;;;;;;;;;5027766;28;20395;-87
2021/05/07 07:41:07;;;;;;;14.23;7.55;;;;;;;;;;5029192;28;20855;-87
2021/05/07 07:43:33;;;;;;;15.70;7.22;;;;;;;;;;5027923;28;20798;-82
2021/05/07 07:46:00;;;;;;;13.90;6.90;;;;;;;;;;5027883;28;20440;-85
2021/05/07 07:48:26;;;;;;;14.95;7.13;;;;;;;;;;5029008;28;20709;-84
2021/05/07 07:50:52;;;;;;;13.13;7.15;;;;;;;;;;5028444;28;20757;-83
2021/05/07 07:53:18;;;;;;;14.60;7.38;;;;;;;;;;5028382;28;20377;-86
2021/05/07 07:55:44;;;;;;;12.32;7.18;;;;;;;;;;5028635;28;20728;-85
2021/05/07 07:58:10;;;;;;;13.00;7.43;;;;;;;;;;5029800;28;20380;-88
2021/05/07 08:00:36;;;;;;;13.52;7.18;;;;;;;;;;5028564;28;20385;-85
2021/05/07 08:03:02;;;;;;;11.90;7.13;;;;;;;;;;5029794;28;20411;-87
2021/05/07 08:05:28;;;;;;;17.67;7.53;;;;;;;;;;5029627;28;20382;-85
2021/05/07 08:07:58;;;;;;;16.77;7.72;;;;;;;;;;5028060;28;20889;-87
2021/05/07 08:10:24;;;;;;;14.63;8.40;;;;;;;;;;5029177;28;20381;-89
2021/05/07 08:12:50;;;;;;;12.85;8.20;;;;;;;;;;5029605;28;20401;-87
2021/05/07 08:15:16;;;;;;;12.82;6.82;;;;;;;;;;5028792;28;20483;-90
2021/05/07 08:17:42;;;;;;;6.90;4.28;;;;;;;;;;5027903;28;20392;-88
2021/05/07 08:20:08;;;;;;;6.13;4.10;;;;;;;;;;5028568;28;20381;-87
2021/05/07 08:22:35;;;;;;;7.68;3.58;;;;;;;;;;5029012;28;20922;-82
2021/05/07 08:25:01;;;;;;;5.68;3.97;;;;;;;;;;5027664;28;20413;-85
2021/05/07 08:27:27;;;;;;;4.07;3.40;;;;;;;;;;5028421;28;20872;-84
2021/05/07 08:29:55;;;;;;;5.47;2.83;;;;;;;;;;5027887;28;20826;-85
2021/05/07 08:32:21;;;;;;;4.60;2.90;;;;;;;;;;5027718;28;20488;-81
2021/05/07 08:34:47;;;;;;;4.82;2.80;;;;;;;;;;5029071;28;20460;-83
2021/05/07 08:37:13;;;;;;;2.88;2.50;;;;;;;;;;5029576;28;20435;-86
2021/05/07 08:39:40;;;;;;;3.42;2.80;;;;;;;;;;5028003;28;20416;-82
2021/05/07 08:42:06;;;;;;;3.63;2.50;;;;;;;;;;5028308;28;20431;-84
2021/05/07 08:44:32;;;;;;;3.08;2.47;;;;;;;;;;5027769;28;20396;-86
2021/05/07 08:46:59;;;;;;;3.50;2.47;;;;;;;;;;5027356;28;20381;-84
2021/05/07 08:49:26;;;;;;;2.67;2.30;;;;;;;;;;5027751;28;20386;-90
2021/05/07 08:51:52;;;;;;;4.50;2.60;;;;;;;;;;5028082;28;20409;-86
2021/05/07 08:54:18;;;;;;;2.83;2.40;;;;;;;;;;5028851;28;20372;-89
2021/05/07 08:56:44;;;;;;;3.30;2.20;;;;;;;;;;5027078;28;20468;-84
2021/05/07 08:59:11;;;;;;;3.30;2.38;;;;;;;;;;5028526;28;20385;-89
2021/05/07 09:01:48;;;;;;;2.63;2.42;;;;;;;;;;5027537;28;20432;-84
2021/05/07 09:04:16;;;;;;;3.72;2.28;;;;;;;;;;5028989;28;20397;-87
2021/05/07 09:06:49;;;;;;;3.88;2.67;;;;;;;;;;5026231;28;20419;-88
2021/05/07 09:09:25;;;;;;;3.00;2.58;;;;;;;;;;5027107;28;20433;-89
2021/05/07 09:11:51;;;;;;;3.22;2.30;;;;;;;;;;5027430;28;20402;-85
2021/05/07 09:14:17;;;;;;;3.25;2.30;;;;;;;;;;5026484;28;20378;-86
2021/05/07 09:16:53;;;;;;;3.60;2.60;;;;;;;;;;5027456;28;20432;-83
2021/05/07 09:19:39;;;;;;;3.15;2.10;;;;;;;;;;5028535;28;20380;-84
2021/05/07 09:22:05;;;;;;;2.90;2.60;;;;;;;;;;5027531;28;20385;-89
2021/05/07 09:24:31;;;;;;;3.70;2.53;;;;;;;;;;5028829;28;20817;-85
2021/05/07 09:26:57;;;;;;;3.80;2.40;;;;;;;;;;5027594;28;20386;-86
2021/05/07 09:29:25;;;;;;;2.92;2.50;;;;;;;;;;5028792;28;20366;-83
2021/05/07 09:31:52;;;;;;;4.50;2.80;;;;;;;;;;5026404;28;20409;-82
2021/05/07 09:34:21;;;;;;;3.05;2.75;;;;;;;;;;5043327;28;20391;-85
2021/05/07 09:36:48;;;;;;;5.60;3.30;;;;;;;;;;5034072;28;20851;-86
2021/05/07 09:39:15;;;;;;;3.17;2.88;;;;;;;;;;5031865;28;20377;-84
2021/05/07 09:41:42;;;;;;;3.97;2.80;;;;;;;;;;5030762;28;20476;-84
2021/05/07 09:44:15;;;;;;;5.40;2.50;;;;;;;;;;5030747;28;20498;-83
2021/05/07 09:46:41;;;;;;;3.80;2.50;;;;;;;;;;5031591;28;20381;-85
2021/05/07 09:49:08;;;;;;;4.38;2.70;;;;;;;;;;5030556;28;20362;-84
2021/05/07 09:51:40;;;;;;;3.65;2.33;;;;;;;;;;5030287;28;20405;-85
2021/05/07 09:54:07;;;;;;;3.80;2.33;;;;;;;;;;5031501;28;20369;-87
2021/05/07 09:56:34;;;;;;;3.10;2.33;;;;;;;;;;5030541;28;20891;-86
2021/05/07 09:59:00;;;;;;;3.33;2.30;;;;;;;;;;5031544;28;20388;-83
2021/05/07 10:01:27;;;;;;;3.47;2.63;;;;;;;;;;5031321;28;20373;-85
2021/05/07 10:03:57;;;;;;;3.80;2.40;;;;;;;;;;5031833;28;20370;-88
2021/05/07 10:06:23;;;;;;;4.43;2.95;;;;;;;;;;5030498;28;20740;-84
2021/05/07 10:08:50;;;;;;;3.63;2.63;;;;;;;;;;5031358;28;20881;-84
2021/05/07 10:11:17;;;;;;;4.65;2.75;;;;;;;;;;5031111;28;20499;-87
2021/05/07 10:13:43;;;;;;;3.70;2.83;;;;;;;;;;5031297;28;20370;-85
2021/05/07 10:16:09;;;;;;;5.80;2.78;;;;;;;;;;5031172;28;20461;-86
2021/05/07 10:18:38;;;;;;;3.83;2.60;;;;;;;;;;5029760;28;20886;-87
2021/05/07 10:21:04;;;;;;;3.55;2.13;;;;;;;;;;5031040;28;20369;-87
2021/05/07 10:23:30;;;;;;;5.03;2.95;;;;;;;;;;5030272;28;20378;-84
2021/05/07 10:26:10;;;;;;;7.30;2.85;;;;;;;;;;5030029;28;20919;-85
2021/05/07 10:28:49;;;;;;;5.30;2.63;;;;;;;;;;5030039;28;20381;-86
2021/05/07 10:31:16;;;;;;;4.15;2.33;;;;;;;;;;5030980;28;20441;-85
2021/05/07 10:34:01;;;;;;;4.55;2.60;;;;;;;;;;5030067;28;20389;-83
2021/05/07 10:36:37;;;;;;;4.93;2.40;;;;;;;;;;5030009;28;20413;-88
2021/05/07 10:39:04;;;;;;;3.67;2.25;;;;;;;;;;5029809;28;20377;-85
2021/05/07 10:41:36;;;;;;;5.47;2.50;;;;;;;;;;5030936;28;20914;-85
2021/05/07 10:44:03;;;;;;;4.93;2.50;;;;;;;;;;5029765;28;21088;-88
2021/05/07 10:46:29;;;;;;;5.93;3.13;;;;;;;;;;5039245;28;20384;-85
2021/05/07 10:48:56;;;;;;;5.38;2.75;;;;;;;;;;5049009;28;20414;-86
2021/05/07 10:51:23;;;;;;;6.22;2.90;;;;;;;;;;5049292;28;20487;-83
2021/05/07 10:53:51;;;;;;;4.65;2.70;;;;;;;;;;5037058;28;20390;-89
2021/05/07 10:56:21;;;;;;;6.00;2.73;;;;;;;;;;5043159;28;20432;-84
2021/05/07 10:58:48;;;;;;;4.43;2.50;;;;;;;;;;5018219;28;20731;-86
2021/05/07 11:01:21;;;;;;;5.82;2.88;;;;;;;;;;5036952;28;20376;-88
2021/05/07 11:03:58;;;;;;;4.57;2.20;;;;;;;;;;5034753;28;20423;-85
2021/05/07 11:06:35;;;;;;;6.47;2.60;;;;;;;;;;5038001;28;20372;-85
2021/05/07 11:09:11;;;;;;;5.20;2.25;;;;;;;;;;5035278;28;20390;-89
2021/05/07 11:11:37;;;;;;;5.77;2.30;;;;;;;;;;5036472;28;20407;-85
2021/05/07 11:14:03;;;;;;;7.10;2.50;;;;;;;;;;5036331;28;20389;-85
2021/05/07 11:16:36;;;;;;;4.60;2.60;;;;;;;;;;5036264;28;20461;-86
2021/05/07 11:19:03;;;;;;;6.00;2.53;;;;;;;;;;5035792;28;20377;-85
2021/05/07 11:21:29;;;;;;;4.70;2.20;;;;;;;;;;5036264;28;20377;-86
2021/05/07 11:23:55;;;;;;;4.10;2.27;;;;;;;;;;5032001;28;20398;-84
2021/05/07 11:26:34;;;;;;;5.73;2.20;;;;;;;;;;5036510;28;20427;-88
2021/05/07 11:29:00;;;;;;;7.07;2.60;;;;;;;;;;5035583;28;20400;-84
2021/05/07 11:31:29;;;;;;;2.70;2.30;;;;;;;;;;5035429;28;20405;-86
2021/05/07 11:33:55;;;;;;;4.13;2.72;;;;;;;;;;5035314;28;20426;-87
2021/05/07 11:36:23;;;;;;;3.30;3.00;;;;;;;;;;5035564;28;20386;-86
2021/05/07 11:38:49;;;;;;;3.97;3.33;;;;;;;;;;5037188;28;20426;-85
2021/05/07 11:41:22;;;;;;;4.35;3.83;;;;;;;;;;5035780;28;20376;-85
2021/05/07 11:43:49;;;;;;;3.55;3.22;;;;;;;;;;5035862;28;20831;-86
2021/05/07 11:46:15;;;;;;;3.20;2.88;;;;;;;;;;5036276;28;20380;-84
2021/05/07 11:48:44;;;;;;;3.20;2.90;;;;;;;;;;5033923;28;20900;-87
2021/05/07 11:51:10;;;;;;;2.05;1.85;;;;;;;;;;5034686;28;20909;-86
2021/05/07 11:53:37;;;;;;;2.47;1.90;;;;;;;;;;5035669;28;20402;-85
2021/05/07 11:56:04;;;;;;;1.50;1.40;;;;;;;;;;5036340;28;20368;-84
2021/05/07 11:58:39;;;;;;;1.23;1.13;;;;;;;;;;5035149;28;20415;-84
2021/05/07 12:01:08;;;;;;;1.50;1.35;;;;;;;;;;5033615;28;20380;-83
2021/05/07 12:03:42;;;;;;;2.60;1.45;;;;;;;;;;5035554;28;20396;-83
2021/05/07 12:06:16;;;;;;;1.67;1.27;;;;;;;;;;5035385;28;20725;-85
2021/05/07 12:08:42;;;;;;;1.67;1.30;;;;;;;;;;5035589;28;20867;-90
2021/05/07 12:11:09;;;;;;;2.03;1.83;;;;;;;;;;5036419;28;20410;-85
2021/05/07 12:13:35;;;;;;;2.30;2.10;;;;;;;;;;5036455;28;20372;-86
2021/05/07 12:16:01;;;;;;;3.10;2.77;;;;;;;;;;5035349;28;20413;-87
2021/05/07 12:18:31;;;;;;;3.88;3.35;;;;;;;;;;5034866;28;20368;-82
2021/05/07 12:20:57;;;;;;;4.68;4.30;;;;;;;;;;5034443;28;20421;-84
2021/05/07 12:23:39;;;;;;;3.80;3.50;;;;;;;;;;5034654;28;20384;-90
2021/05/07 12:26:06;;;;;;;5.18;3.63;;;;;;;;;;5030326;28;20392;-86
2021/05/07 12:28:32;;;;;;;4.90;4.10;;;;;;;;;;5027817;28;20373;-86
2021/05/07 12:30:58;;;;;;;4.55;4.15;;;;;;;;;;5026531;28;20451;-87
2021/05/07 12:33:25;;;;;;;4.30;3.90;;;;;;;;;;5028275;28;20453;-83
2021/05/07 12:35:57;;;;;;;4.82;4.20;;;;;;;;;;5028769;28;20472;-83
2021/05/07 12:38:24;;;;;;;4.68;4.28;;;;;;;;;;5012672;28;20838;-87
2021/05/07 12:40:58;;;;;;;4.43;3.92;;;;;;;;;;5007893;28;20413;-87
2021/05/07 12:43:25;;;;;;;3.73;3.37;;;;;;;;;;5009528;28;20422;-85
2021/05/07 12:45:51;;;;;;;3.67;3.30;;;;;;;;;;5008282;28;20461;-87
2021/05/07 12:48:17;;;;;;;3.47;2.70;;;;;;;;;;5008132;28;20394;-84
2021/05/07 12:50:45;;;;;;;3.17;2.28;;;;;;;;;;5011890;28;20387;-87
2021/05/07 12:53:19;;;;;;;2.70;2.50;;;;;;;;;;5006884;28;20379;-86
2021/05/07 12:55:45;;;;;;;2.83;2.63;;;;;;;;;;5008498;28;20393;-83
2021/05/07 12:58:11;;;;;;;3.13;2.72;;;;;;;;;;5008599;28;20417;-85
2021/05/07 13:00:38;;;;;;;3.13;2.70;;;;;;;;;;5008990;28;20380;-87
2021/05/07 13:03:04;;;;;;;3.15;2.60;;;;;;;;;;5009118;28;20386;-84
2021/05/07 13:05:31;;;;;;;5.00;2.50;;;;;;;;;;5009040;28;20437;-88
2021/05/07 13:07:57;;;;;;;2.83;2.05;;;;;;;;;;5007994;28;20895;-87
2021/05/07 13:10:23;;;;;;;3.05;2.00;;;;;;;;;;5008118;28;20383;-88
2021/05/07 13:12:50;;;;;;;2.30;2.10;;;;;;;;;;5011064;28;20429;-85
2021/05/07 13:15:16;;;;;;;1.95;1.80;;;;;;;;;;5017620;28;20416;-86
2021/05/07 13:17:42;;;;;;;2.40;2.03;;;;;;;;;;5030078;28;20707;-84
2021/05/07 13:20:08;;;;;;;2.22;1.77;;;;;;;;;;5031770;28;20468;-84
2021/05/07 13:22:34;;;;;;;2.20;1.80;;;;;;;;;;5031439;28;20890;-82
2021/05/07 13:25:00;;;;;;;5.22;2.60;;;;;;;;;;5032606;28;20381;-86
2021/05/07 13:27:26;;;;;;;1.98;1.67;;;;;;;;;;5029790;28;20389;-87
2021/05/07 13:29:52;;;;;;;2.85;1.70;;;;;;;;;;5032798;28;20377;-89
2021/05/07 13:32:19;;;;;;;2.67;1.67;;;;;;;;;;5032458;28;20408;-86
2021/05/07 13:34:49;;;;;;;1.95;1.58;;;;;;;;;;5031317;28;20875;-89
2021/05/07 13:37:16;;;;;;;2.58;1.80;;;;;;;;;;5031575;28;20393;-86
2021/05/07 13:39:42;;;;;;;2.97;1.90;;;;;;;;;;5031169;28;20747;-85
2021/05/07 13:42:08;;;;;;;2.88;1.92;;;;;;;;;;5030828;28;20377;-86
2021/05/07 13:44:34;;;;;;;3.92;1.70;;;;;;;;;;5030176;28;20404;-87
2021/05/07 13:47:00;;;;;;;2.75;1.77;;;;;;;;;;5030437;28;20370;-88
2021/05/07 13:49:26;;;;;;;2.33;1.70;;;;;;;;;;5030812;28;20479;-87
2021/05/07 13:51:55;;;;;;;1.90;1.60;;;;;;;;;;5030574;28;20544;-89
2021/05/07 13:54:23;;;;;;;2.65;1.60;;;;;;;;;;5031298;28;20377;-86
2021/05/07 13:56:52;;;;;;;3.22;2.35;;;;;;;;;;5031536;28;20460;-88
2021/05/07 13:59:19;;;;;;;3.78;2.28;;;;;;;;;;5031427;28;20370;-82
2021/05/07 14:01:46;;;;;;;3.13;2.47;;;;;;;;;;5030106;28;20811;-84
2021/05/07 14:04:12;;;;;;;5.47;3.23;;;;;;;;;;5030993;28;20366;-83
2021/05/07 14:06:39;;;;;;;4.35;3.53;;;;;;;;;;5024848;28;20385;-83
2021/05/07 14:09:08;;;;;;;4.88;3.60;;;;;;;;;;5019614;28;20391;-83
2021/05/07 14:11:35;;;;;;;5.23;3.90;;;;;;;;;;5019733;28;20538;-86
2021/05/07 14:14:02;;;;;;;3.75;3.30;;;;;;;;;;5021959;28;20389;-90
2021/05/07 14:16:27;;;;;;;4.45;3.45;;;;;;;;;;5019558;28;20393;-87
2021/05/07 14:18:54;;;;;;;5.97;3.38;;;;;;;;;;5017795;28;20385;-86
2021/05/07 14:21:20;;;;;;;5.10;3.03;;;;;;;;;;5027739;28;20483;-87
2021/05/07 14:23:49;;;;;;;4.68;3.75;;;;;;;;;;5028062;28;20370;-86
2021/05/07 14:26:25;;;;;;;5.07;3.43;;;;;;;;;;5028251;28;20408;-87
2021/05/07 14:28:51;;;;;;;3.45;2.80;;;;;;;;;;5017501;28;20375;-87
2021/05/07 14:31:17;;;;;;;4.55;2.70;;;;;;;;;;5016648;28;20407;-88
2021/05/07 14:33:43;;;;;;;2.63;2.40;;;;;;;;;;5019331;28;20753;-88
2021/05/07 14:36:12;;;;;;;3.78;2.40;;;;;;;;;;5022599;28;20935;-87
2021/05/07 14:38:39;;;;;;;5.40;2.95;;;;;;;;;;5023333;28;20378;-87
2021/05/07 14:41:07;;;;;;;3.50;2.75;;;;;;;;;;5026529;28;20373;-87
2021/05/07 14:43:35;;;;;;;4.28;2.50;;;;;;;;;;5018226;28;20476;-87
2021/05/07 14:46:01;;;;;;;3.58;2.50;;;;;;;;;;5019669;28;20363;-86